sensor_id;sensor_type;location;lat;lon;timestamp;temperature;humidity
20714;DHT22;10518;50.742;4.226;2023-08-06T00:02:25;17.00;99.90
20714;DHT22;10518;50.742;4.226;2023-08-06T00:04:50;17.00;99.90
20714;DHT22;10518;50.742;4.226;2023-08-06T00:07:16;17.00;99.90
20714;DHT22;10518;50.742;4.226;2023-08-06T00:09:42;17.00;99.90
20714;DHT22;10518;50.742;4.226;2023-08-06T00:12:08;16.80;99.90
20714;DHT22;10518;50.742;4.226;2023-08-06T00:14:33;16.90;99.90
20714;DHT22;10518;50.742;4.226;2023-08-06T00:16:59;16.90;99.90
20714;DHT22;10518;50.742;4.226;2023-08-06T00:19:25;16.90;99.90
20714;DHT22;10518;50.742;4.226;2023-08-06T00:21:51;17.10;99.90
20714;DHT22;10518;50.742;4.226;2023-08-06T00:24:17;17.20;99.90
20714;DHT22;10518;50.742;4.226;2023-08-06T00:26:42;17.20;99.90
20714;DHT22;10518;50.742;4.226;2023-08-06T00:29:08;17.20;99.90
20714;DHT22;10518;50.742;4.226;2023-08-06T00:31:34;17.20;99.90
20714;DHT22;10518;50.742;4.226;2023-08-06T00:33:59;17.30;99.90
20714;DHT22;10518;50.742;4.226;2023-08-06T00:36:25;17.20;99.90
20714;DHT22;10518;50.742;4.226;2023-08-06T00:38:50;17.40;99.90
20714;DHT22;10518;50.742;4.226;2023-08-06T00:41:17;17.40;99.90
20714;DHT22;10518;50.742;4.226;2023-08-06T00:43:43;17.20;99.90
20714;DHT22;10518;50.742;4.226;2023-08-06T00:46:08;17.20;99.90
20714;DHT22;10518;50.742;4.226;2023-08-06T00:48:35;17.20;99.90
20714;DHT22;10518;50.742;4.226;2023-08-06T00:51:01;17.30;99.90
20714;DHT22;10518;50.742;4.226;2023-08-06T00:53:27;17.50;99.90
20714;DHT22;10518;50.742;4.226;2023-08-06T00:55:53;17.40;99.90
20714;DHT22;10518;50.742;4.226;2023-08-06T00:58:19;17.40;99.90
20714;DHT22;10518;50.742;4.226;2023-08-06T01:00:44;17.50;99.90
20714;DHT22;10518;50.742;4.226;2023-08-06T01:03:11;17.30;99.90
20714;DHT22;10518;50.742;4.226;2023-08-06T01:05:37;17.30;99.90
20714;DHT22;10518;50.742;4.226;2023-08-06T01:08:15;17.40;99.90
20714;DHT22;10518;50.742;4.226;2023-08-06T01:13:40;17.40;99.90
20714;DHT22;10518;50.742;4.226;2023-08-06T01:16:07;17.10;99.90
20714;DHT22;10518;50.742;4.226;2023-08-06T01:18:34;17.40;99.90
20714;DHT22;10518;50.742;4.226;2023-08-06T01:21:01;17.30;99.90
20714;DHT22;10518;50.742;4.226;2023-08-06T01:23:26;17.40;99.90
20714;DHT22;10518;50.742;4.226;2023-08-06T01:26:37;17.40;99.90
20714;DHT22;10518;50.742;4.226;2023-08-06T01:29:24;17.40;99.90
20714;DHT22;10518;50.742;4.226;2023-08-06T01:31:51;17.30;99.90
20714;DHT22;10518;50.742;4.226;2023-08-06T01:34:21;17.40;99.90
20714;DHT22;10518;50.742;4.226;2023-08-06T01:36:47;17.40;99.90
20714;DHT22;10518;50.742;4.226;2023-08-06T01:39:13;17.30;99.90
20714;DHT22;10518;50.742;4.226;2023-08-06T01:41:39;17.10;99.90
20714;DHT22;10518;50.742;4.226;2023-08-06T01:44:05;17.00;99.90
20714;DHT22;10518;50.742;4.226;2023-08-06T01:46:31;17.10;99.90
20714;DHT22;10518;50.742;4.226;2023-08-06T01:48:57;17.10;99.90
20714;DHT22;10518;50.742;4.226;2023-08-06T01:51:23;17.20;99.90
20714;DHT22;10518;50.742;4.226;2023-08-06T01:53:48;17.10;99.90
20714;DHT22;10518;50.742;4.226;2023-08-06T01:56:14;17.00;99.90
20714;DHT22;10518;50.742;4.226;2023-08-06T01:58:40;16.90;99.90
20714;DHT22;10518;50.742;4.226;2023-08-06T02:01:05;16.70;99.90
20714;DHT22;10518;50.742;4.226;2023-08-06T02:03:31;16.80;99.90
20714;DHT22;10518;50.742;4.226;2023-08-06T02:05:57;16.70;99.90
20714;DHT22;10518;50.742;4.226;2023-08-06T02:08:22;16.70;99.90
20714;DHT22;10518;50.742;4.226;2023-08-06T02:10:48;16.60;99.90
20714;DHT22;10518;50.742;4.226;2023-08-06T02:13:14;16.60;99.90
20714;DHT22;10518;50.742;4.226;2023-08-06T02:15:46;16.50;99.90
20714;DHT22;10518;50.742;4.226;2023-08-06T02:18:15;16.50;99.90
20714;DHT22;10518;50.742;4.226;2023-08-06T02:20:41;16.60;99.90
20714;DHT22;10518;50.742;4.226;2023-08-06T02:23:07;16.60;99.90
20714;DHT22;10518;50.742;4.226;2023-08-06T02:25:34;16.80;99.90
20714;DHT22;10518;50.742;4.226;2023-08-06T02:28:00;16.70;99.90
20714;DHT22;10518;50.742;4.226;2023-08-06T02:30:26;16.80;99.90
20714;DHT22;10518;50.742;4.226;2023-08-06T02:32:51;16.70;99.90
20714;DHT22;10518;50.742;4.226;2023-08-06T02:35:17;16.70;99.90
20714;DHT22;10518;50.742;4.226;2023-08-06T02:37:43;16.60;99.90
20714;DHT22;10518;50.742;4.226;2023-08-06T02:40:09;16.60;99.90
20714;DHT22;10518;50.742;4.226;2023-08-06T02:42:35;16.50;99.90
20714;DHT22;10518;50.742;4.226;2023-08-06T02:45:00;16.50;99.90
20714;DHT22;10518;50.742;4.226;2023-08-06T02:47:26;16.70;99.90
20714;DHT22;10518;50.742;4.226;2023-08-06T02:49:52;16.70;99.90
20714;DHT22;10518;50.742;4.226;2023-08-06T02:52:18;16.60;99.90
20714;DHT22;10518;50.742;4.226;2023-08-06T02:54:44;16.60;99.90
20714;DHT22;10518;50.742;4.226;2023-08-06T02:57:09;16.70;99.90
20714;DHT22;10518;50.742;4.226;2023-08-06T02:59:35;16.60;99.90
20714;DHT22;10518;50.742;4.226;2023-08-06T03:02:01;16.70;99.90
20714;DHT22;10518;50.742;4.226;2023-08-06T03:04:26;16.60;99.90
20714;DHT22;10518;50.742;4.226;2023-08-06T03:06:52;16.60;99.90
20714;DHT22;10518;50.742;4.226;2023-08-06T03:09:18;16.60;99.90
20714;DHT22;10518;50.742;4.226;2023-08-06T03:11:44;16.50;99.90
20714;DHT22;10518;50.742;4.226;2023-08-06T03:14:10;16.30;99.90
20714;DHT22;10518;50.742;4.226;2023-08-06T03:16:35;16.50;99.90
20714;DHT22;10518;50.742;4.226;2023-08-06T03:19:01;16.40;99.90
20714;DHT22;10518;50.742;4.226;2023-08-06T03:21:27;16.40;99.90
20714;DHT22;10518;50.742;4.226;2023-08-06T03:23:53;16.60;99.90
20714;DHT22;10518;50.742;4.226;2023-08-06T03:26:18;16.50;99.90
20714;DHT22;10518;50.742;4.226;2023-08-06T03:28:44;16.30;99.90
20714;DHT22;10518;50.742;4.226;2023-08-06T03:31:10;16.20;99.90
20714;DHT22;10518;50.742;4.226;2023-08-06T03:33:35;16.20;99.90
20714;DHT22;10518;50.742;4.226;2023-08-06T03:36:01;16.10;99.90
20714;DHT22;10518;50.742;4.226;2023-08-06T03:38:27;16.00;99.90
20714;DHT22;10518;50.742;4.226;2023-08-06T03:40:53;16.00;99.90
20714;DHT22;10518;50.742;4.226;2023-08-06T03:43:19;16.00;99.90
20714;DHT22;10518;50.742;4.226;2023-08-06T03:45:45;15.90;99.90
20714;DHT22;10518;50.742;4.226;2023-08-06T03:48:11;15.80;99.90
20714;DHT22;10518;50.742;4.226;2023-08-06T03:50:37;15.80;99.90
20714;DHT22;10518;50.742;4.226;2023-08-06T03:53:03;15.80;99.90
20714;DHT22;10518;50.742;4.226;2023-08-06T03:55:29;15.70;99.90
20714;DHT22;10518;50.742;4.226;2023-08-06T03:57:55;15.50;99.90
20714;DHT22;10518;50.742;4.226;2023-08-06T04:00:20;15.30;99.90
20714;DHT22;10518;50.742;4.226;2023-08-06T04:02:46;15.40;99.90
20714;DHT22;10518;50.742;4.226;2023-08-06T04:05:12;15.30;99.90
20714;DHT22;10518;50.742;4.226;2023-08-06T04:07:38;15.40;99.90
20714;DHT22;10518;50.742;4.226;2023-08-06T04:10:04;15.30;99.90
20714;DHT22;10518;50.742;4.226;2023-08-06T04:12:31;15.20;99.90
20714;DHT22;10518;50.742;4.226;2023-08-06T04:14:58;15.30;99.90
20714;DHT22;10518;50.742;4.226;2023-08-06T04:17:24;15.30;99.90
20714;DHT22;10518;50.742;4.226;2023-08-06T04:19:54;15.30;99.90
20714;DHT22;10518;50.742;4.226;2023-08-06T04:22:21;15.40;99.90
20714;DHT22;10518;50.742;4.226;2023-08-06T04:24:47;15.40;99.90
20714;DHT22;10518;50.742;4.226;2023-08-06T04:27:14;15.30;99.90
20714;DHT22;10518;50.742;4.226;2023-08-06T04:29:40;15.20;99.90
20714;DHT22;10518;50.742;4.226;2023-08-06T04:32:07;15.20;99.90
20714;DHT22;10518;50.742;4.226;2023-08-06T04:34:34;15.30;99.90
20714;DHT22;10518;50.742;4.226;2023-08-06T04:37:00;15.10;99.90
20714;DHT22;10518;50.742;4.226;2023-08-06T04:39:26;15.10;99.90
20714;DHT22;10518;50.742;4.226;2023-08-06T04:41:52;15.10;99.90
20714;DHT22;10518;50.742;4.226;2023-08-06T04:44:18;15.00;99.90
20714;DHT22;10518;50.742;4.226;2023-08-06T04:46:44;14.90;99.90
20714;DHT22;10518;50.742;4.226;2023-08-06T04:49:09;14.90;99.90
20714;DHT22;10518;50.742;4.226;2023-08-06T04:51:35;14.90;99.90
20714;DHT22;10518;50.742;4.226;2023-08-06T04:54:01;15.00;99.90
20714;DHT22;10518;50.742;4.226;2023-08-06T04:56:26;15.10;99.90
20714;DHT22;10518;50.742;4.226;2023-08-06T04:58:52;15.00;99.90
20714;DHT22;10518;50.742;4.226;2023-08-06T05:01:18;15.20;99.90
20714;DHT22;10518;50.742;4.226;2023-08-06T05:03:44;15.30;99.90
20714;DHT22;10518;50.742;4.226;2023-08-06T05:06:09;15.30;99.90
20714;DHT22;10518;50.742;4.226;2023-08-06T05:08:36;15.30;99.90
20714;DHT22;10518;50.742;4.226;2023-08-06T05:11:01;15.30;99.90
20714;DHT22;10518;50.742;4.226;2023-08-06T05:13:28;15.30;99.90
20714;DHT22;10518;50.742;4.226;2023-08-06T05:15:54;15.20;99.90
20714;DHT22;10518;50.742;4.226;2023-08-06T05:18:20;15.30;99.90
20714;DHT22;10518;50.742;4.226;2023-08-06T05:20:47;15.20;99.90
20714;DHT22;10518;50.742;4.226;2023-08-06T05:23:13;15.20;99.90
20714;DHT22;10518;50.742;4.226;2023-08-06T05:25:38;15.10;99.90
20714;DHT22;10518;50.742;4.226;2023-08-06T05:28:04;15.10;99.90
20714;DHT22;10518;50.742;4.226;2023-08-06T05:30:30;15.20;99.90
20714;DHT22;10518;50.742;4.226;2023-08-06T05:32:56;15.20;99.90
20714;DHT22;10518;50.742;4.226;2023-08-06T05:35:22;15.10;99.90
20714;DHT22;10518;50.742;4.226;2023-08-06T05:37:50;15.00;99.90
20714;DHT22;10518;50.742;4.226;2023-08-06T05:40:16;15.10;99.90
20714;DHT22;10518;50.742;4.226;2023-08-06T05:42:42;15.10;99.90
20714;DHT22;10518;50.742;4.226;2023-08-06T05:45:08;15.20;99.90
20714;DHT22;10518;50.742;4.226;2023-08-06T05:47:35;15.20;99.90
20714;DHT22;10518;50.742;4.226;2023-08-06T05:50:01;15.20;99.90
20714;DHT22;10518;50.742;4.226;2023-08-06T05:52:26;15.20;99.90
20714;DHT22;10518;50.742;4.226;2023-08-06T05:54:52;15.20;99.90
20714;DHT22;10518;50.742;4.226;2023-08-06T05:57:18;15.30;99.90
20714;DHT22;10518;50.742;4.226;2023-08-06T05:59:44;15.20;99.90
20714;DHT22;10518;50.742;4.226;2023-08-06T06:02:09;15.20;99.90
20714;DHT22;10518;50.742;4.226;2023-08-06T06:04:36;15.20;99.90
20714;DHT22;10518;50.742;4.226;2023-08-06T06:07:02;15.20;99.90
20714;DHT22;10518;50.742;4.226;2023-08-06T06:09:28;15.20;99.90
20714;DHT22;10518;50.742;4.226;2023-08-06T06:11:53;15.40;99.90
20714;DHT22;10518;50.742;4.226;2023-08-06T06:14:19;15.40;99.90
20714;DHT22;10518;50.742;4.226;2023-08-06T06:16:45;15.50;99.90
20714;DHT22;10518;50.742;4.226;2023-08-06T06:19:12;15.50;99.90
20714;DHT22;10518;50.742;4.226;2023-08-06T06:21:38;15.60;99.90
20714;DHT22;10518;50.742;4.226;2023-08-06T06:24:05;15.60;99.90
20714;DHT22;10518;50.742;4.226;2023-08-06T06:26:31;15.60;99.90
20714;DHT22;10518;50.742;4.226;2023-08-06T06:28:57;15.70;99.90
20714;DHT22;10518;50.742;4.226;2023-08-06T06:31:23;15.70;99.90
20714;DHT22;10518;50.742;4.226;2023-08-06T06:33:49;15.80;99.90
20714;DHT22;10518;50.742;4.226;2023-08-06T06:36:15;15.80;99.90
20714;DHT22;10518;50.742;4.226;2023-08-06T06:38:40;15.80;99.90
20714;DHT22;10518;50.742;4.226;2023-08-06T06:41:06;15.80;99.90
20714;DHT22;10518;50.742;4.226;2023-08-06T06:43:32;15.70;99.90
20714;DHT22;10518;50.742;4.226;2023-08-06T06:45:59;15.70;99.90
20714;DHT22;10518;50.742;4.226;2023-08-06T06:48:31;15.80;99.90
20714;DHT22;10518;50.742;4.226;2023-08-06T06:50:57;15.80;99.90
20714;DHT22;10518;50.742;4.226;2023-08-06T06:53:23;15.80;99.90
20714;DHT22;10518;50.742;4.226;2023-08-06T06:56:03;15.60;99.90
20714;DHT22;10518;50.742;4.226;2023-08-06T06:58:29;15.40;99.90
20714;DHT22;10518;50.742;4.226;2023-08-06T07:00:55;15.30;99.90
20714;DHT22;10518;50.742;4.226;2023-08-06T07:03:21;15.30;99.90
20714;DHT22;10518;50.742;4.226;2023-08-06T07:05:47;15.20;99.90
20714;DHT22;10518;50.742;4.226;2023-08-06T07:08:13;15.30;99.90
20714;DHT22;10518;50.742;4.226;2023-08-06T07:10:41;15.50;99.90
20714;DHT22;10518;50.742;4.226;2023-08-06T07:13:07;15.60;99.90
20714;DHT22;10518;50.742;4.226;2023-08-06T07:15:32;15.60;99.90
20714;DHT22;10518;50.742;4.226;2023-08-06T07:17:58;15.60;99.90
20714;DHT22;10518;50.742;4.226;2023-08-06T07:20:24;15.50;99.90
20714;DHT22;10518;50.742;4.226;2023-08-06T07:22:49;15.40;99.90
20714;DHT22;10518;50.742;4.226;2023-08-06T07:25:16;15.40;99.90
20714;DHT22;10518;50.742;4.226;2023-08-06T07:27:42;15.40;99.90
20714;DHT22;10518;50.742;4.226;2023-08-06T07:30:08;15.50;99.90
20714;DHT22;10518;50.742;4.226;2023-08-06T07:32:34;15.40;99.90
20714;DHT22;10518;50.742;4.226;2023-08-06T07:34:59;15.50;99.90
20714;DHT22;10518;50.742;4.226;2023-08-06T07:37:29;15.60;99.90
20714;DHT22;10518;50.742;4.226;2023-08-06T07:39:56;15.80;99.90
20714;DHT22;10518;50.742;4.226;2023-08-06T07:42:22;15.90;99.90
20714;DHT22;10518;50.742;4.226;2023-08-06T07:44:58;16.00;99.90
20714;DHT22;10518;50.742;4.226;2023-08-06T07:47:24;16.20;99.90
20714;DHT22;10518;50.742;4.226;2023-08-06T07:49:50;16.30;99.90
20714;DHT22;10518;50.742;4.226;2023-08-06T07:52:16;16.30;99.90
20714;DHT22;10518;50.742;4.226;2023-08-06T07:54:42;16.20;99.90
20714;DHT22;10518;50.742;4.226;2023-08-06T07:57:07;16.00;99.90
20714;DHT22;10518;50.742;4.226;2023-08-06T07:59:33;15.80;99.90
20714;DHT22;10518;50.742;4.226;2023-08-06T08:01:59;15.80;99.90
20714;DHT22;10518;50.742;4.226;2023-08-06T08:04:25;15.80;99.90
20714;DHT22;10518;50.742;4.226;2023-08-06T08:06:51;15.80;99.90
20714;DHT22;10518;50.742;4.226;2023-08-06T08:09:17;15.90;99.90
20714;DHT22;10518;50.742;4.226;2023-08-06T08:11:43;15.90;99.90
20714;DHT22;10518;50.742;4.226;2023-08-06T08:14:09;15.80;99.90
20714;DHT22;10518;50.742;4.226;2023-08-06T08:16:35;16.00;99.90
20714;DHT22;10518;50.742;4.226;2023-08-06T08:19:00;15.80;99.90
20714;DHT22;10518;50.742;4.226;2023-08-06T08:21:26;15.80;99.90
20714;DHT22;10518;50.742;4.226;2023-08-06T08:23:52;15.90;99.90
20714;DHT22;10518;50.742;4.226;2023-08-06T08:26:18;16.00;99.90
20714;DHT22;10518;50.742;4.226;2023-08-06T08:28:44;16.10;99.90
20714;DHT22;10518;50.742;4.226;2023-08-06T08:31:10;16.10;99.90
20714;DHT22;10518;50.742;4.226;2023-08-06T08:33:40;16.20;99.90
20714;DHT22;10518;50.742;4.226;2023-08-06T08:36:05;16.00;99.90
20714;DHT22;10518;50.742;4.226;2023-08-06T08:38:31;15.90;99.90
20714;DHT22;10518;50.742;4.226;2023-08-06T08:40:57;15.80;99.90
20714;DHT22;10518;50.742;4.226;2023-08-06T08:43:23;15.90;99.90
20714;DHT22;10518;50.742;4.226;2023-08-06T08:45:53;16.00;99.90
20714;DHT22;10518;50.742;4.226;2023-08-06T08:48:24;16.10;99.90
20714;DHT22;10518;50.742;4.226;2023-08-06T08:50:51;16.30;99.90
20714;DHT22;10518;50.742;4.226;2023-08-06T08:53:17;16.50;99.90
20714;DHT22;10518;50.742;4.226;2023-08-06T08:55:49;16.50;99.90
20714;DHT22;10518;50.742;4.226;2023-08-06T08:58:15;16.50;99.90
20714;DHT22;10518;50.742;4.226;2023-08-06T09:00:47;16.60;99.90
20714;DHT22;10518;50.742;4.226;2023-08-06T09:03:14;16.60;99.90
20714;DHT22;10518;50.742;4.226;2023-08-06T09:05:46;16.60;99.90
20714;DHT22;10518;50.742;4.226;2023-08-06T09:08:18;16.60;99.90
20714;DHT22;10518;50.742;4.226;2023-08-06T09:10:44;16.60;99.90
20714;DHT22;10518;50.742;4.226;2023-08-06T09:13:13;16.60;99.90
20714;DHT22;10518;50.742;4.226;2023-08-06T09:15:39;16.60;99.90
20714;DHT22;10518;50.742;4.226;2023-08-06T09:18:11;16.60;99.90
20714;DHT22;10518;50.742;4.226;2023-08-06T09:20:38;16.50;99.90
20714;DHT22;10518;50.742;4.226;2023-08-06T09:23:08;16.50;99.90
20714;DHT22;10518;50.742;4.226;2023-08-06T09:25:38;16.50;99.90
20714;DHT22;10518;50.742;4.226;2023-08-06T09:28:05;16.50;99.90
20714;DHT22;10518;50.742;4.226;2023-08-06T09:30:36;16.40;99.90
20714;DHT22;10518;50.742;4.226;2023-08-06T09:33:02;16.20;99.90
20714;DHT22;10518;50.742;4.226;2023-08-06T09:35:29;16.30;99.90
20714;DHT22;10518;50.742;4.226;2023-08-06T09:38:04;16.20;99.90
20714;DHT22;10518;50.742;4.226;2023-08-06T09:40:32;16.20;99.90
20714;DHT22;10518;50.742;4.226;2023-08-06T09:42:59;16.10;99.90
20714;DHT22;10518;50.742;4.226;2023-08-06T09:45:36;15.90;99.90
20714;DHT22;10518;50.742;4.226;2023-08-06T09:48:09;15.80;99.90
20714;DHT22;10518;50.742;4.226;2023-08-06T09:50:36;15.70;99.90
20714;DHT22;10518;50.742;4.226;2023-08-06T09:53:07;15.70;99.90
20714;DHT22;10518;50.742;4.226;2023-08-06T09:55:34;15.70;99.90
20714;DHT22;10518;50.742;4.226;2023-08-06T09:58:00;15.70;99.90
20714;DHT22;10518;50.742;4.226;2023-08-06T10:00:26;15.70;99.90
20714;DHT22;10518;50.742;4.226;2023-08-06T10:02:53;15.70;99.90
20714;DHT22;10518;50.742;4.226;2023-08-06T10:05:22;15.80;99.90
20714;DHT22;10518;50.742;4.226;2023-08-06T10:07:49;15.80;99.90
20714;DHT22;10518;50.742;4.226;2023-08-06T10:10:18;15.90;99.90
20714;DHT22;10518;50.742;4.226;2023-08-06T10:12:50;15.80;99.90
20714;DHT22;10518;50.742;4.226;2023-08-06T10:15:20;15.70;99.90
20714;DHT22;10518;50.742;4.226;2023-08-06T10:17:49;15.80;99.90
20714;DHT22;10518;50.742;4.226;2023-08-06T10:20:17;15.80;99.90
20714;DHT22;10518;50.742;4.226;2023-08-06T10:22:44;15.80;99.90
20714;DHT22;10518;50.742;4.226;2023-08-06T10:25:10;15.80;99.90
20714;DHT22;10518;50.742;4.226;2023-08-06T10:30:27;15.90;99.90
20714;DHT22;10518;50.742;4.226;2023-08-06T10:33:00;16.00;99.90
20714;DHT22;10518;50.742;4.226;2023-08-06T10:35:37;16.20;99.90
20714;DHT22;10518;50.742;4.226;2023-08-06T10:38:11;16.30;99.90
20714;DHT22;10518;50.742;4.226;2023-08-06T10:40:39;16.30;99.90
20714;DHT22;10518;50.742;4.226;2023-08-06T10:43:06;16.10;99.90
20714;DHT22;10518;50.742;4.226;2023-08-06T10:45:37;15.80;99.90
20714;DHT22;10518;50.742;4.226;2023-08-06T10:48:03;15.70;99.90
20714;DHT22;10518;50.742;4.226;2023-08-06T10:50:30;15.80;99.90
20714;DHT22;10518;50.742;4.226;2023-08-06T10:52:57;16.00;99.90
20714;DHT22;10518;50.742;4.226;2023-08-06T10:55:24;16.20;99.90
20714;DHT22;10518;50.742;4.226;2023-08-06T10:57:51;16.40;99.90
20714;DHT22;10518;50.742;4.226;2023-08-06T11:00:16;16.60;99.90
20714;DHT22;10518;50.742;4.226;2023-08-06T11:02:42;16.90;99.90
20714;DHT22;10518;50.742;4.226;2023-08-06T11:05:10;17.10;99.90
20714;DHT22;10518;50.742;4.226;2023-08-06T11:07:36;17.20;99.90
20714;DHT22;10518;50.742;4.226;2023-08-06T11:10:07;17.40;99.90
20714;DHT22;10518;50.742;4.226;2023-08-06T11:12:33;17.50;99.90
20714;DHT22;10518;50.742;4.226;2023-08-06T11:14:59;17.50;99.90
20714;DHT22;10518;50.742;4.226;2023-08-06T11:17:27;17.70;99.90
20714;DHT22;10518;50.742;4.226;2023-08-06T11:19:53;17.60;99.90
20714;DHT22;10518;50.742;4.226;2023-08-06T11:22:21;17.80;99.90
20714;DHT22;10518;50.742;4.226;2023-08-06T11:24:50;18.20;99.90
20714;DHT22;10518;50.742;4.226;2023-08-06T11:27:17;18.30;99.90
20714;DHT22;10518;50.742;4.226;2023-08-06T11:29:44;18.30;99.90
20714;DHT22;10518;50.742;4.226;2023-08-06T11:32:10;18.20;99.90
20714;DHT22;10518;50.742;4.226;2023-08-06T11:34:37;18.10;99.90
20714;DHT22;10518;50.742;4.226;2023-08-06T11:37:04;18.10;99.90
20714;DHT22;10518;50.742;4.226;2023-08-06T11:39:36;18.10;99.90
20714;DHT22;10518;50.742;4.226;2023-08-06T11:42:04;18.00;99.90
20714;DHT22;10518;50.742;4.226;2023-08-06T11:44:31;17.90;99.90
20714;DHT22;10518;50.742;4.226;2023-08-06T11:47:02;17.80;99.90
20714;DHT22;10518;50.742;4.226;2023-08-06T11:52:24;17.50;99.90
20714;DHT22;10518;50.742;4.226;2023-08-06T11:55:03;17.40;99.90
20714;DHT22;10518;50.742;4.226;2023-08-06T11:57:30;17.20;99.90
20714;DHT22;10518;50.742;4.226;2023-08-06T12:00:08;17.00;99.90
20714;DHT22;10518;50.742;4.226;2023-08-06T12:02:35;16.80;99.90
20714;DHT22;10518;50.742;4.226;2023-08-06T12:07:42;16.40;99.90
20714;DHT22;10518;50.742;4.226;2023-08-06T12:10:09;16.20;99.90
20714;DHT22;10518;50.742;4.226;2023-08-06T12:12:35;16.30;99.90
20714;DHT22;10518;50.742;4.226;2023-08-06T12:15:03;16.40;99.90
20714;DHT22;10518;50.742;4.226;2023-08-06T12:17:29;16.40;99.90
20714;DHT22;10518;50.742;4.226;2023-08-06T12:19:54;16.50;99.90
20714;DHT22;10518;50.742;4.226;2023-08-06T12:22:20;16.50;99.90
20714;DHT22;10518;50.742;4.226;2023-08-06T12:24:47;16.60;99.90
20714;DHT22;10518;50.742;4.226;2023-08-06T12:27:13;16.80;99.90
20714;DHT22;10518;50.742;4.226;2023-08-06T12:29:47;16.80;99.90
20714;DHT22;10518;50.742;4.226;2023-08-06T12:32:13;16.80;99.90
20714;DHT22;10518;50.742;4.226;2023-08-06T12:34:40;16.80;99.90
20714;DHT22;10518;50.742;4.226;2023-08-06T12:37:06;16.70;99.90
20714;DHT22;10518;50.742;4.226;2023-08-06T12:39:36;16.60;99.90
20714;DHT22;10518;50.742;4.226;2023-08-06T12:42:03;16.40;99.90
20714;DHT22;10518;50.742;4.226;2023-08-06T12:44:29;16.10;99.90
20714;DHT22;10518;50.742;4.226;2023-08-06T12:46:55;15.90;99.90
20714;DHT22;10518;50.742;4.226;2023-08-06T12:49:22;15.70;99.90
20714;DHT22;10518;50.742;4.226;2023-08-06T12:51:49;15.70;99.90
20714;DHT22;10518;50.742;4.226;2023-08-06T12:54:17;15.90;99.90
20714;DHT22;10518;50.742;4.226;2023-08-06T12:56:44;16.00;99.90
20714;DHT22;10518;50.742;4.226;2023-08-06T12:59:10;16.10;99.90
20714;DHT22;10518;50.742;4.226;2023-08-06T13:01:37;16.20;99.90
20714;DHT22;10518;50.742;4.226;2023-08-06T13:04:03;16.40;99.90
20714;DHT22;10518;50.742;4.226;2023-08-06T13:06:29;16.50;99.90
20714;DHT22;10518;50.742;4.226;2023-08-06T13:08:58;16.70;99.90
20714;DHT22;10518;50.742;4.226;2023-08-06T13:11:24;16.80;99.90
20714;DHT22;10518;50.742;4.226;2023-08-06T13:13:50;16.90;99.90
20714;DHT22;10518;50.742;4.226;2023-08-06T13:16:15;17.00;99.90
20714;DHT22;10518;50.742;4.226;2023-08-06T13:18:41;17.10;99.90
20714;DHT22;10518;50.742;4.226;2023-08-06T13:21:07;17.30;99.90
20714;DHT22;10518;50.742;4.226;2023-08-06T13:23:32;17.30;99.90
20714;DHT22;10518;50.742;4.226;2023-08-06T13:25:58;17.30;99.90
20714;DHT22;10518;50.742;4.226;2023-08-06T13:28:24;17.30;99.90
20714;DHT22;10518;50.742;4.226;2023-08-06T13:30:50;17.20;99.90
20714;DHT22;10518;50.742;4.226;2023-08-06T13:33:16;17.10;99.90
20714;DHT22;10518;50.742;4.226;2023-08-06T13:35:42;17.10;99.90
20714;DHT22;10518;50.742;4.226;2023-08-06T13:38:07;17.10;99.90
20714;DHT22;10518;50.742;4.226;2023-08-06T13:40:34;17.20;99.90
20714;DHT22;10518;50.742;4.226;2023-08-06T13:43:00;17.20;99.90
20714;DHT22;10518;50.742;4.226;2023-08-06T13:45:26;17.30;99.90
20714;DHT22;10518;50.742;4.226;2023-08-06T13:47:52;17.30;99.90
20714;DHT22;10518;50.742;4.226;2023-08-06T13:50:17;17.30;99.90
20714;DHT22;10518;50.742;4.226;2023-08-06T13:52:44;17.20;99.90
20714;DHT22;10518;50.742;4.226;2023-08-06T13:55:10;17.10;99.90
20714;DHT22;10518;50.742;4.226;2023-08-06T13:57:35;17.10;99.90
20714;DHT22;10518;50.742;4.226;2023-08-06T14:00:02;17.20;99.90
20714;DHT22;10518;50.742;4.226;2023-08-06T14:02:28;17.40;99.90
20714;DHT22;10518;50.742;4.226;2023-08-06T14:04:53;17.30;99.90
20714;DHT22;10518;50.742;4.226;2023-08-06T14:07:20;17.10;99.90
20714;DHT22;10518;50.742;4.226;2023-08-06T14:09:45;16.90;99.90
20714;DHT22;10518;50.742;4.226;2023-08-06T14:12:13;16.80;99.90
20714;DHT22;10518;50.742;4.226;2023-08-06T14:14:39;16.80;99.90
20714;DHT22;10518;50.742;4.226;2023-08-06T14:17:05;16.80;99.90
20714;DHT22;10518;50.742;4.226;2023-08-06T14:19:31;16.80;99.90
20714;DHT22;10518;50.742;4.226;2023-08-06T14:21:56;16.80;99.90
20714;DHT22;10518;50.742;4.226;2023-08-06T14:24:22;16.80;99.90
20714;DHT22;10518;50.742;4.226;2023-08-06T14:26:48;16.90;99.90
20714;DHT22;10518;50.742;4.226;2023-08-06T14:29:14;16.90;99.90
20714;DHT22;10518;50.742;4.226;2023-08-06T14:31:40;16.90;99.90
20714;DHT22;10518;50.742;4.226;2023-08-06T14:34:06;17.00;99.90
20714;DHT22;10518;50.742;4.226;2023-08-06T14:36:32;17.00;99.90
20714;DHT22;10518;50.742;4.226;2023-08-06T14:38:58;16.90;99.90
20714;DHT22;10518;50.742;4.226;2023-08-06T14:41:23;17.00;99.90
20714;DHT22;10518;50.742;4.226;2023-08-06T14:43:50;17.00;99.90
20714;DHT22;10518;50.742;4.226;2023-08-06T14:46:15;17.10;99.90
20714;DHT22;10518;50.742;4.226;2023-08-06T14:48:41;17.10;99.90
20714;DHT22;10518;50.742;4.226;2023-08-06T14:51:08;17.20;99.90
20714;DHT22;10518;50.742;4.226;2023-08-06T14:53:34;17.20;99.90
20714;DHT22;10518;50.742;4.226;2023-08-06T14:55:59;17.40;99.90
20714;DHT22;10518;50.742;4.226;2023-08-06T14:58:25;17.50;99.90
20714;DHT22;10518;50.742;4.226;2023-08-06T15:00:51;17.40;99.90
20714;DHT22;10518;50.742;4.226;2023-08-06T15:03:16;17.50;99.90
20714;DHT22;10518;50.742;4.226;2023-08-06T15:05:48;17.50;99.90
20714;DHT22;10518;50.742;4.226;2023-08-06T15:08:14;17.40;99.90
20714;DHT22;10518;50.742;4.226;2023-08-06T15:10:40;17.30;99.90
20714;DHT22;10518;50.742;4.226;2023-08-06T15:13:05;17.40;99.90
20714;DHT22;10518;50.742;4.226;2023-08-06T15:15:32;17.50;99.90
20714;DHT22;10518;50.742;4.226;2023-08-06T15:17:57;17.50;99.90
20714;DHT22;10518;50.742;4.226;2023-08-06T15:20:24;17.60;99.90
20714;DHT22;10518;50.742;4.226;2023-08-06T15:22:50;17.70;99.90
20714;DHT22;10518;50.742;4.226;2023-08-06T15:25:16;17.70;99.90
20714;DHT22;10518;50.742;4.226;2023-08-06T15:27:43;17.70;99.90
20714;DHT22;10518;50.742;4.226;2023-08-06T15:30:09;17.80;99.90
20714;DHT22;10518;50.742;4.226;2023-08-06T15:32:35;17.90;99.90
20714;DHT22;10518;50.742;4.226;2023-08-06T15:35:00;17.90;99.90
20714;DHT22;10518;50.742;4.226;2023-08-06T15:37:26;17.90;99.90
20714;DHT22;10518;50.742;4.226;2023-08-06T15:39:52;17.90;99.90